Rotterdam — PDGS — position and weather

sailwx.info

Track history (hours):
 
Tides and Currents Weather Stations Pressure Air Temp Water Temp Dewpoint Dewpoint Depression Visibility Wind Speed Wind Dir Waves Ship Positions

Rotterdam

Operator: Holland America Line

Last reported at 2018-Jan-20 09:00 UTC. Time now 2018-Jan-20 09:22 UTC.
Position N 17°20' W 062°17'.

Length 228 m; beam 29 m.

Type: Ship. MMSI: 24616700.

Date/timePositionNaut miles runAvg speedWind from/ knotsBaromVisibWave heightAir tempDewpointWater temp
2018-Jan-20 09:00N 17°20' W 062°17'713.5
2018-Jan-20 08:30N 17°24' W 062°23'713.4
2018-Jan-20 08:00N 17°27' W 062°29'713.2
2018-Jan-20 07:30N 17°29' W 062°36'713.2
2018-Jan-20 06:57N 17°32' W 062°43'613.2
2018-Jan-20 06:29N 17°35' W 062°49'713.2
2018-Jan-20 05:56N 17°38' W 062°56'613.2
2018-Jan-20 05:27N 17°41' W 063°01'1713.3
2018-Jan-20 04:09N 17°49' W 063°18'213.6
2018-Jan-20 04:00N 17°50' W 063°20'713.8
2018-Jan-20 03:28N 17°53' W 063°27'714.0
2018-Jan-20 02:59N 17°55' W 063°34'613.6
2018-Jan-20 02:30N 17°56' W 063°40'813.8
2018-Jan-20 01:56N 17°58' W 063°48'613.6
2018-Jan-20 01:30N 17°59' W 063°54'1016.3
2018-Jan-20 00:53N 18°02' W 064°05'  
Track history (hours):
 
Tides and Currents Weather Stations Pressure Air Temp Water Temp Dewpoint Dewpoint Depression Visibility Wind Speed Wind Dir Waves Ship Positions

Rotterdam

Operator: Holland America Line

Last reported at 2018-Jan-20 09:00 UTC. Time now 2018-Jan-20 09:22 UTC.
Position N 17°20' W 062°17'.

Length 228 m; beam 29 m.

Type: Ship. MMSI: 24616700.

Date/timePositionNaut miles runAvg speedWind from/ knotsBaromVisibWave heightAir tempDewpointWater temp
2018-Jan-20 09:00N 17°20' W 062°17'713.5
2018-Jan-20 08:30N 17°24' W 062°23'713.4
2018-Jan-20 08:00N 17°27' W 062°29'713.2
2018-Jan-20 07:30N 17°29' W 062°36'713.2
2018-Jan-20 06:57N 17°32' W 062°43'613.2
2018-Jan-20 06:29N 17°35' W 062°49'713.2
2018-Jan-20 05:56N 17°38' W 062°56'613.2
2018-Jan-20 05:27N 17°41' W 063°01'1713.3
2018-Jan-20 04:09N 17°49' W 063°18'213.6
2018-Jan-20 04:00N 17°50' W 063°20'713.8
2018-Jan-20 03:28N 17°53' W 063°27'714.0
2018-Jan-20 02:59N 17°55' W 063°34'613.6
2018-Jan-20 02:30N 17°56' W 063°40'813.8
2018-Jan-20 01:56N 17°58' W 063°48'613.6
2018-Jan-20 01:30N 17°59' W 063°54'1016.3
2018-Jan-20 00:53N 18°02' W 064°05'  

Dump ship's entire track history